createdAt,value
2022-09-04T00:02:24.349Z,100992.41
2022-09-04T00:05:04.369Z,100987.50
2022-09-04T00:07:39.746Z,100988.50
2022-09-04T00:10:15.289Z,100992.38
2022-09-04T00:12:50.390Z,100989.19
2022-09-04T00:15:22.255Z,100996.63
2022-09-04T00:17:59.515Z,100991.47
2022-09-04T00:20:46.992Z,100996.94
2022-09-04T00:23:20.984Z,101000.31
2022-09-04T00:25:58.935Z,100999.19
2022-09-04T00:28:35.491Z,101006.19
2022-09-04T00:31:16.354Z,101006.91
2022-09-04T00:33:57.487Z,101003.72
2022-09-04T00:36:29.398Z,101004.47
2022-09-04T00:39:01.634Z,101015.38
2022-09-04T00:41:31.750Z,101020.34
2022-09-04T00:44:25.472Z,101025.81
2022-09-04T00:47:10.694Z,101022.09
2022-09-04T00:50:22.658Z,101027.81
2022-09-04T00:53:10.705Z,101022.66
2022-09-04T00:56:05.409Z,101022.91
2022-09-04T00:58:56.793Z,101029.38
2022-09-04T01:01:27.989Z,101017.97
2022-09-04T01:04:24.610Z,101028.88
2022-09-04T01:07:09.213Z,101025.47
2022-09-04T01:09:53.926Z,101016.31
2022-09-04T01:12:33.767Z,101022.03
2022-09-04T01:15:14.350Z,101020.69
2022-09-04T01:17:52.070Z,101012.53
2022-09-04T01:20:28.983Z,101017.34
2022-09-04T01:23:23.150Z,101020.81
2022-09-04T01:26:03.562Z,101021.97
2022-09-04T01:28:43.047Z,101021.34
2022-09-04T01:31:23.881Z,101026.06
2022-09-04T01:34:04.009Z,101026.78
2022-09-04T01:36:39.298Z,101034.13
2022-09-04T01:39:07.379Z,101030.13
2022-09-04T01:41:46.095Z,101029.50
2022-09-04T01:44:16.939Z,101036.50
2022-09-04T01:47:01.428Z,101038.22
2022-09-04T01:49:35.681Z,101038.75
2022-09-04T01:52:36.498Z,101038.16
2022-09-04T01:55:13.421Z,101039.38
2022-09-04T01:57:55.541Z,101042.19
2022-09-04T02:00:25.040Z,101042.25
2022-09-04T02:03:02.291Z,101040.88
2022-09-04T02:05:45.648Z,101044.34
2022-09-04T02:08:39.255Z,101047.44
2022-09-04T02:11:15.815Z,101052.44
2022-09-04T02:14:04.693Z,101056.50
2022-09-04T02:16:45.482Z,101056.63
2022-09-04T02:19:28.279Z,101063.66
2022-09-04T02:22:02.954Z,101061.34
2022-09-04T02:24:37.612Z,101070.50
2022-09-04T02:27:11.853Z,101067.38
2022-09-04T02:29:47.955Z,101072.34
2022-09-04T02:32:25.735Z,101071.00
2022-09-04T02:35:00.206Z,101069.50
2022-09-04T02:37:39.677Z,101079.25
2022-09-04T02:40:16.328Z,101080.66
2022-09-04T02:42:58.491Z,101093.41
2022-09-04T02:45:35.727Z,101080.06
2022-09-04T02:48:14.238Z,101083.63
2022-09-04T02:50:57.853Z,101083.97
2022-09-04T02:53:33.690Z,101083.25
2022-09-04T02:56:17.544Z,101085.97
2022-09-04T02:59:03.653Z,101088.22
2022-09-04T03:01:43.601Z,101101.72
2022-09-04T03:04:25.965Z,101096.88
2022-09-04T03:06:58.172Z,101100.22
2022-09-04T03:09:30.196Z,101100.38
2022-09-04T03:12:04.948Z,101105.91
2022-09-04T03:14:40.188Z,101097.13
2022-09-04T03:17:17.427Z,101103.94
2022-09-04T03:19:52.391Z,101106.94
2022-09-04T03:22:28.398Z,101105.69
2022-09-04T03:25:08.706Z,101101.34
2022-09-04T03:27:36.998Z,101108.41
2022-09-04T03:30:08.998Z,101103.94
2022-09-04T03:32:46.453Z,101109.28
2022-09-04T03:35:25.826Z,101105.56
2022-09-04T03:38:09.987Z,101109.38
2022-09-04T03:40:43.061Z,101115.09
2022-09-04T03:43:31.307Z,101112.38
2022-09-04T03:46:12.187Z,101110.41
2022-09-04T03:49:01.391Z,101123.78
2022-09-04T03:51:40.386Z,101126.75
2022-09-04T03:54:18.166Z,101129.69
2022-09-04T03:56:54.591Z,101125.03
2022-09-04T03:59:41.203Z,101130.84
2022-09-04T04:02:24.250Z,101136.38
2022-09-04T04:05:21.509Z,101142.56
2022-09-04T04:08:04.774Z,101144.69
2022-09-04T04:10:48.584Z,101156.69
2022-09-04T04:13:33.387Z,101162.38
2022-09-04T04:16:24.703Z,101167.94
2022-09-04T04:19:12.174Z,101166.09
2022-09-04T04:21:56.980Z,101168.44
2022-09-04T04:24:44.293Z,101170.06
2022-09-04T04:27:25.719Z,101185.53
2022-09-04T04:30:09.425Z,101189.63
2022-09-04T04:33:01.427Z,101206.22
2022-09-04T04:35:36.810Z,101207.31
2022-09-04T04:38:19.279Z,101227.25
2022-09-04T04:41:05.637Z,101195.56
2022-09-04T04:43:45.849Z,101205.09
2022-09-04T04:46:22.527Z,101222.69
2022-09-04T04:49:07.849Z,101225.03
2022-09-04T04:52:05.839Z,101236.41
2022-09-04T04:55:10.841Z,101240.38
2022-09-04T04:58:02.483Z,101244.34
2022-09-04T05:00:37.113Z,101236.03
2022-09-04T05:03:15.415Z,101247.94
2022-09-04T05:05:58.260Z,101256.22
2022-09-04T05:08:35.974Z,101257.97
2022-09-04T05:11:11.594Z,101259.44
2022-09-04T05:13:53.470Z,101263.66
2022-09-04T05:16:30.050Z,101270.84
2022-09-04T05:19:03.051Z,101274.94
2022-09-04T05:21:38.555Z,101279.16
2022-09-04T05:24:11.997Z,101270.38
2022-09-04T05:26:49.825Z,101274.31
2022-09-04T05:29:27.218Z,101282.50
2022-09-04T05:32:02.395Z,101280.13
2022-09-04T05:34:36.783Z,101292.47
2022-09-04T05:37:15.291Z,101302.00
2022-09-04T05:40:00.840Z,101309.94
2022-09-04T05:42:58.927Z,101312.78
2022-09-04T05:45:38.440Z,101331.28
2022-09-04T05:48:17.523Z,101342.28
2022-09-04T05:51:04.245Z,101338.34
2022-09-04T05:54:00.842Z,101343.94
2022-09-04T05:57:13.170Z,101338.50
2022-09-04T06:00:09.412Z,101345.19
2022-09-04T06:03:09.825Z,101350.53
2022-09-04T06:05:52.033Z,101350.72
2022-09-04T06:08:33.475Z,101354.19
2022-09-04T06:11:22.653Z,101339.09
2022-09-04T06:14:25.636Z,101317.91
2022-09-04T06:17:12.688Z,101321.25
2022-09-04T06:20:02.090Z,101314.53
2022-09-04T06:22:47.861Z,101313.34
2022-09-04T06:25:31.910Z,101302.78
2022-09-04T06:28:14.150Z,101303.41
2022-09-04T06:30:49.811Z,101297.22
2022-09-04T06:33:59.037Z,101291.47
2022-09-04T06:37:02.102Z,101293.59
2022-09-04T06:39:45.988Z,101292.56
2022-09-04T06:42:28.017Z,101296.19
2022-09-04T06:45:11.134Z,101299.38
2022-09-04T06:47:54.742Z,101294.16
2022-09-04T06:50:35.142Z,101297.72
2022-09-04T06:53:19.285Z,101297.59
2022-09-04T06:55:59.254Z,101300.81
2022-09-04T06:58:51.168Z,101302.41
2022-09-04T07:01:27.437Z,101297.94
2022-09-04T07:04:07.519Z,101287.50
2022-09-04T07:06:51.377Z,101305.91
2022-09-04T07:09:24.208Z,101309.91
2022-09-04T07:12:16.280Z,101308.84
2022-09-04T07:15:14.135Z,101308.97
2022-09-04T07:17:49.314Z,101315.78
2022-09-04T07:20:33.138Z,101317.38
2022-09-04T07:23:37.108Z,101320.06
2022-09-04T07:26:20.466Z,101321.38
2022-09-04T07:29:23.753Z,101324.63
2022-09-04T07:32:02.467Z,101333.56
2022-09-04T07:34:41.268Z,101329.84
2022-09-04T07:37:27.894Z,101328.69
2022-09-04T07:40:09.576Z,101339.44
2022-09-04T07:42:45.800Z,101344.09
2022-09-04T07:45:23.486Z,101352.31
2022-09-04T07:48:07.249Z,101345.25
2022-09-04T07:50:40.276Z,101347.72
2022-09-04T07:53:21.322Z,101363.50
2022-09-04T07:55:56.358Z,101369.56
2022-09-04T07:58:44.299Z,101374.94
2022-09-04T08:01:40.322Z,101379.09
2022-09-04T08:04:33.951Z,101380.56
2022-09-04T08:07:08.287Z,101386.88
2022-09-04T08:09:53.909Z,101386.94
2022-09-04T08:12:50.896Z,101383.22
2022-09-04T08:15:22.251Z,101379.63
2022-09-04T08:18:05.550Z,101380.78
2022-09-04T08:20:45.471Z,101386.84
2022-09-04T08:24:01.568Z,101391.44
2022-09-04T08:26:46.040Z,101394.97
2022-09-04T08:29:37.469Z,101393.50
2022-09-04T08:32:22.497Z,101393.78
2022-09-04T08:35:22.566Z,101396.81
2022-09-04T08:38:08.648Z,101397.69
2022-09-04T08:41:02.731Z,101401.00
2022-09-04T08:43:41.115Z,101404.06
2022-09-04T08:46:49.464Z,101402.47
2022-09-04T08:49:55.246Z,101409.41
2022-09-04T08:53:03.869Z,101410.53
2022-09-04T08:55:46.026Z,101406.34
2022-09-04T08:58:55.736Z,101415.00
2022-09-04T09:02:03.378Z,101416.91
2022-09-04T09:05:09.014Z,101411.13
2022-09-04T09:08:18.726Z,101418.47
2022-09-04T09:11:13.165Z,101420.94
2022-09-04T09:14:11.623Z,101425.28
2022-09-04T09:16:45.088Z,101420.47
2022-09-04T09:19:22.911Z,101421.22
2022-09-04T09:22:12.449Z,101425.31
2022-09-04T09:25:21.214Z,101424.72
2022-09-04T09:28:26.684Z,101418.72
2022-09-04T09:31:38.290Z,101421.25
2022-09-04T09:34:36.450Z,101433.47
2022-09-04T09:37:35.285Z,101418.84
2022-09-04T09:40:26.824Z,101416.28
2022-09-04T09:43:35.345Z,101419.88
2022-09-04T09:46:33.426Z,101425.19
2022-09-04T09:49:21.272Z,101415.53
2022-09-04T09:52:15.386Z,101412.59
2022-09-04T09:55:28.078Z,101417.28
2022-09-04T09:58:28.465Z,101413.41
2022-09-04T10:01:08.605Z,101410.03
2022-09-04T10:04:12.208Z,101414.06
2022-09-04T10:07:10.854Z,101410.16
2022-09-04T10:10:18.786Z,101413.78
2022-09-04T10:13:26.169Z,101409.06
2022-09-04T10:16:21.025Z,101404.44
2022-09-04T10:19:39.454Z,101415.19
2022-09-04T10:22:41.868Z,101406.66
2022-09-04T10:25:31.313Z,101414.59
2022-09-04T10:28:41.021Z,101419.75
2022-09-04T10:31:45.753Z,101406.88
2022-09-04T10:34:38.445Z,101412.22
2022-09-04T10:37:22.928Z,101413.41
2022-09-04T10:40:24.288Z,101413.38
2022-09-04T10:43:11.742Z,101409.41
2022-09-04T10:45:47.209Z,101396.88
2022-09-04T10:48:49.193Z,101406.78
2022-09-04T10:52:09.895Z,101414.25
2022-09-04T10:55:19.841Z,101410.28
2022-09-04T10:58:02.097Z,101410.19
2022-09-04T11:00:36.778Z,101412.56
2022-09-04T11:03:33.387Z,101404.84
2022-09-04T11:06:43.761Z,101410.59
2022-09-04T11:09:23.674Z,101408.41
2022-09-04T11:12:36.294Z,101414.03
2022-09-04T11:15:27.719Z,101404.09
2022-09-04T11:18:34.755Z,101417.13
2022-09-04T11:21:58.923Z,101407.22
2022-09-04T11:25:19.096Z,101411.53
2022-09-04T11:28:01.489Z,101405.84
2022-09-04T11:30:36.685Z,101398.03
2022-09-04T11:33:50.402Z,101401.44
2022-09-04T11:36:52.977Z,101399.47
2022-09-04T11:39:43.717Z,101397.75
2022-09-04T11:42:49.951Z,101403.84
2022-09-04T11:45:49.625Z,101397.53
2022-09-04T11:48:57.479Z,101398.53
2022-09-04T11:52:04.080Z,101398.53
2022-09-04T11:55:14.075Z,101398.91
2022-09-04T11:58:00.307Z,101404.16
2022-09-04T12:00:48.571Z,101403.38
2022-09-04T12:03:53.018Z,101412.84
2022-09-04T12:06:46.723Z,101401.09
2022-09-04T12:09:36.739Z,101402.00
2022-09-04T12:12:31.472Z,101403.06
2022-09-04T12:15:37.950Z,101404.72
2022-09-04T12:18:31.933Z,101405.97
2022-09-04T12:21:20.242Z,101407.00
2022-09-04T12:24:05.282Z,101398.75
2022-09-04T12:26:59.717Z,101407.75
2022-09-04T12:29:59.047Z,101403.59
2022-09-04T12:33:40.947Z,101409.81
2022-09-04T12:36:59.612Z,101411.59
2022-09-04T12:39:53.008Z,101405.28
2022-09-04T12:42:29.756Z,101411.06
2022-09-04T12:45:10.036Z,101412.06
2022-09-04T12:47:54.400Z,101409.41
2022-09-04T12:50:34.405Z,101410.13
2022-09-04T12:53:19.262Z,101414.25
2022-09-04T12:55:52.914Z,101419.06
2022-09-04T12:58:33.866Z,101410.63
2022-09-04T13:01:21.374Z,101417.13
2022-09-04T13:03:59.091Z,101417.06
2022-09-04T13:06:38.246Z,101415.34
2022-09-04T13:09:19.985Z,101405.16
2022-09-04T13:12:07.299Z,101419.59
2022-09-04T13:14:54.019Z,101423.03
2022-09-04T13:17:29.628Z,101427.63
2022-09-04T13:20:12.726Z,101420.22
2022-09-04T13:22:55.077Z,101426.06
2022-09-04T13:25:46.093Z,101417.75
2022-09-04T13:28:29.275Z,101419.91
2022-09-04T13:31:10.007Z,101422.78
2022-09-04T13:33:51.391Z,101414.69
2022-09-04T13:36:30.354Z,101409.78
2022-09-04T13:39:36.605Z,101420.81
2022-09-04T13:42:22.873Z,101426.44
2022-09-04T13:45:07.232Z,101421.03
2022-09-04T13:47:49.966Z,101420.06
2022-09-04T13:50:25.954Z,101418.97
2022-09-04T13:52:59.657Z,101434.41
2022-09-04T13:55:31.582Z,101433.66
2022-09-04T13:58:10.461Z,101431.50
2022-09-04T14:00:45.901Z,101432.59
2022-09-04T14:03:32.792Z,101435.16
2022-09-04T14:06:02.508Z,101437.00
2022-09-04T14:08:31.359Z,101434.88
2022-09-04T14:11:26.192Z,101432.25
2022-09-04T14:14:20.013Z,101435.28
2022-09-04T14:16:49.585Z,101424.97
2022-09-04T14:19:32.399Z,101438.81
2022-09-04T14:22:24.596Z,101432.63
2022-09-04T14:25:06.445Z,101427.28
2022-09-04T14:27:47.964Z,101426.00
2022-09-04T14:30:18.114Z,101435.50
2022-09-04T14:32:58.039Z,101429.44
2022-09-04T14:35:36.363Z,101426.72
2022-09-04T14:38:24.481Z,101432.63
2022-09-04T14:41:03.345Z,101426.22
2022-09-04T14:43:45.726Z,101417.47
2022-09-04T14:46:22.015Z,101420.22
2022-09-04T14:49:01.081Z,101423.16
2022-09-04T14:51:36.751Z,101420.34
2022-09-04T14:54:06.392Z,101420.81
2022-09-04T14:56:41.153Z,101432.47
2022-09-04T14:59:17.691Z,101431.41
2022-09-04T15:02:06.171Z,101426.97
2022-09-04T15:04:42.416Z,101429.59
2022-09-04T15:07:31.634Z,101423.84
2022-09-04T15:10:17.330Z,101423.66
2022-09-04T15:12:54.502Z,101421.19
2022-09-04T15:15:31.596Z,101423.53
2022-09-04T15:18:10.836Z,101423.47
2022-09-04T15:20:48.902Z,101421.19
2022-09-04T15:23:25.877Z,101418.47
2022-09-04T15:26:02.994Z,101416.41
2022-09-04T15:28:39.946Z,101417.94
2022-09-04T15:31:16.040Z,101414.72
2022-09-04T15:33:47.619Z,101408.13
2022-09-04T15:36:20.221Z,101404.13
2022-09-04T15:38:55.810Z,101405.19
2022-09-04T15:41:37.747Z,101409.31
2022-09-04T15:44:18.579Z,101406.16
2022-09-04T15:47:20.412Z,101402.44
2022-09-04T15:49:52.548Z,101407.13
2022-09-04T15:52:31.012Z,101405.59
2022-09-04T15:55:12.009Z,101419.50
2022-09-04T15:57:52.092Z,101406.81
2022-09-04T16:00:24.135Z,101411.06
2022-09-04T16:02:59.205Z,101410.13
2022-09-04T16:05:36.149Z,101410.66
2022-09-04T16:08:20.588Z,101403.81
2022-09-04T16:10:58.459Z,101406.09
2022-09-04T16:13:40.155Z,101406.63
2022-09-04T16:16:19.285Z,101409.41
2022-09-04T16:19:04.756Z,101407.09
2022-09-04T16:21:42.872Z,101409.66
2022-09-04T16:24:16.790Z,101413.16
2022-09-04T16:26:54.052Z,101413.63
2022-09-04T16:29:32.873Z,101412.41
2022-09-04T16:32:01.268Z,101414.78
2022-09-04T16:34:34.443Z,101419.28
2022-09-04T16:37:10.335Z,101412.84
2022-09-04T16:39:49.525Z,101411.06
2022-09-04T16:42:25.103Z,101407.56
2022-09-04T16:45:00.326Z,101411.06
2022-09-04T16:47:36.487Z,101416.28
2022-09-04T16:50:17.980Z,101423.59
2022-09-04T16:53:12.688Z,101411.72
2022-09-04T16:55:48.842Z,101417.06
2022-09-04T16:58:34.974Z,101413.09
2022-09-04T17:01:14.319Z,101419.72
2022-09-04T17:04:13.886Z,101408.88
2022-09-04T17:07:00.150Z,101412.69
2022-09-04T17:09:34.345Z,101408.34
2022-09-04T17:12:18.170Z,101417.13
2022-09-04T17:14:53.737Z,101414.56
2022-09-04T17:17:31.221Z,101419.09
2022-09-04T17:20:11.275Z,101417.22
2022-09-04T17:29:01.870Z,101413.09
2022-09-04T17:29:15.595Z,101410.72
2022-09-04T17:29:24.485Z,101406.34
2022-09-04T17:31:45.597Z,101406.41
2022-09-04T17:40:31.792Z,101415.06
2022-09-04T17:40:40.415Z,101405.59
2022-09-04T17:40:49.734Z,101407.16
2022-09-04T17:43:22.124Z,101407.34
2022-09-04T17:46:06.711Z,101414.75
2022-09-04T17:48:42.009Z,101406.50
2022-09-04T17:51:17.658Z,101409.41
2022-09-04T17:53:52.799Z,101410.94
2022-09-04T17:56:25.309Z,101408.88
2022-09-04T17:58:59.624Z,101412.84
2022-09-04T18:01:33.768Z,101413.03
2022-09-04T18:04:22.896Z,101413.72
2022-09-04T18:06:56.714Z,101419.56
2022-09-04T18:09:33.045Z,101422.63
2022-09-04T18:12:11.151Z,101421.94
2022-09-04T18:14:53.148Z,101426.34
2022-09-04T18:17:47.863Z,101420.28
2022-09-04T18:20:29.503Z,101425.59
2022-09-04T18:23:30.828Z,101424.72
2022-09-04T18:26:04.937Z,101435.91
2022-09-04T18:28:47.303Z,101439.31
2022-09-04T18:37:07.568Z,101441.00
2022-09-04T18:37:20.407Z,101447.16
2022-09-04T18:37:44.862Z,101447.97
2022-09-04T18:40:14.972Z,101452.41
2022-09-04T18:50:21.702Z,101455.66
2022-09-04T18:50:24.235Z,101465.41
2022-09-04T18:50:49.355Z,101456.59
2022-09-04T18:51:44.059Z,101458.75
2022-09-04T18:54:23.119Z,101462.00
2022-09-04T18:56:55.750Z,101470.16
2022-09-04T18:59:28.004Z,101467.34
2022-09-04T19:02:04.361Z,101478.22
2022-09-04T19:04:40.070Z,101476.72
2022-09-04T19:07:12.859Z,101481.28
2022-09-04T19:10:08.766Z,101486.50
2022-09-04T19:12:48.023Z,101481.31
2022-09-04T19:15:36.294Z,101482.34
2022-09-04T19:18:13.243Z,101474.78
2022-09-04T19:20:47.816Z,101478.31
2022-09-04T19:23:25.594Z,101477.97
2022-09-04T19:25:57.258Z,101481.53
2022-09-04T19:28:30.469Z,101477.38
2022-09-04T19:31:03.286Z,101479.03
2022-09-04T19:33:40.412Z,101478.75
2022-09-04T19:36:12.928Z,101473.28
2022-09-04T19:45:05.750Z,101470.00
2022-09-04T19:46:09.187Z,101474.19
2022-09-04T19:46:15.050Z,101477.13
2022-09-04T19:47:30.808Z,101477.25
2022-09-04T19:53:19.481Z,101482.06
2022-09-04T19:53:31.103Z,101483.50
2022-09-04T19:56:08.421Z,101482.06
2022-09-04T19:58:44.043Z,101480.34
2022-09-04T20:01:16.922Z,101485.69
2022-09-04T20:03:49.717Z,101488.59
2022-09-04T20:06:30.106Z,101494.38
2022-09-04T20:09:04.032Z,101498.56
2022-09-04T20:11:36.522Z,101489.94
2022-09-04T20:14:20.568Z,101487.75
2022-09-04T20:17:08.451Z,101485.59
2022-09-04T20:19:42.144Z,101494.13
2022-09-04T20:22:25.937Z,101496.28
2022-09-04T20:25:02.087Z,101495.00
2022-09-04T20:27:36.506Z,101495.00
2022-09-04T20:30:12.756Z,101497.03
2022-09-04T20:32:55.987Z,101501.06
2022-09-04T20:35:33.846Z,101503.09
2022-09-04T20:38:12.439Z,101503.19
2022-09-04T20:40:43.229Z,101497.56
2022-09-04T20:43:26.870Z,101503.34
2022-09-04T20:50:34.698Z,101503.47
2022-09-04T20:52:50.302Z,101508.53
2022-09-04T20:52:53.514Z,101503.31
2022-09-04T20:55:30.032Z,101511.84
2022-09-04T21:03:07.982Z,101503.72
2022-09-04T21:03:08.613Z,101502.84
2022-09-04T21:04:09.628Z,101510.81
2022-09-04T21:06:44.433Z,101511.22
2022-09-04T21:09:30.657Z,101514.41
2022-09-04T21:12:13.938Z,101514.81
2022-09-04T21:14:46.486Z,101515.94
2022-09-04T21:18:06.274Z,101516.66
2022-09-04T21:20:59.745Z,101509.72
2022-09-04T21:24:03.688Z,101514.03
2022-09-04T21:27:11.956Z,101515.16
2022-09-04T21:29:59.488Z,101514.28
2022-09-04T21:32:49.689Z,101512.84
2022-09-04T21:35:22.949Z,101513.00
2022-09-04T21:38:02.777Z,101516.00
2022-09-04T21:40:52.498Z,101514.41
2022-09-04T21:43:38.599Z,101512.97
2022-09-04T21:46:54.635Z,101522.75
2022-09-04T21:49:41.788Z,101534.44
2022-09-04T21:52:32.406Z,101523.19
2022-09-04T21:58:14.137Z,101533.28
2022-09-04T22:02:32.419Z,101536.97
2022-09-04T22:02:40.286Z,101525.28
2022-09-04T22:04:19.967Z,101534.03
2022-09-04T22:08:24.078Z,101529.72
2022-09-04T22:13:30.138Z,101537.47
2022-09-04T22:13:48.074Z,101530.81
2022-09-04T22:16:18.512Z,101529.66
2022-09-04T22:19:31.869Z,101531.78
2022-09-04T22:22:11.547Z,101529.94
2022-09-04T22:25:08.823Z,101530.63
2022-09-04T22:28:15.150Z,101525.00
2022-09-04T22:31:09.662Z,101534.75
2022-09-04T22:34:15.725Z,101529.59
2022-09-04T22:37:18.431Z,101540.84
2022-09-04T22:40:00.408Z,101541.44
2022-09-04T22:42:52.433Z,101544.31
2022-09-04T22:46:02.471Z,101546.38
2022-09-04T22:49:12.910Z,101551.84
2022-09-04T22:52:09.976Z,101552.25
2022-09-04T22:54:58.449Z,101552.38
2022-09-04T22:57:44.732Z,101556.50
2022-09-04T23:00:16.871Z,101551.91
2022-09-04T23:03:10.163Z,101553.38
2022-09-04T23:08:21.549Z,101558.97
2022-09-04T23:13:59.034Z,101550.63
2022-09-04T23:14:02.409Z,101550.03
2022-09-04T23:16:03.491Z,101550.28
2022-09-04T23:23:05.126Z,101551.56
2022-09-04T23:26:34.532Z,101559.91
2022-09-04T23:26:46.817Z,101559.66
2022-09-04T23:28:28.228Z,101559.38
2022-09-04T23:31:19.756Z,101560.50
2022-09-04T23:34:21.296Z,101559.66
2022-09-04T23:37:19.581Z,101564.09
2022-09-04T23:40:10.214Z,101568.84
2022-09-04T23:43:14.113Z,101562.59
2022-09-04T23:46:01.242Z,101565.38
2022-09-04T23:49:06.703Z,101565.00
2022-09-04T23:51:45.612Z,101562.63
2022-09-04T23:54:53.062Z,101565.13
2022-09-04T23:57:29.149Z,101562.16
